sensor_id;sensor_type;location;lat;lon;timestamp;pressure;altitude;pressure_sealevel;temperature;humidity
28428;BME280;15662;49.128;8.520;2022-12-07T00:01:46;100638.59;;;11.44;52.77
28428;BME280;15662;49.128;8.520;2022-12-07T00:04:17;100647.47;;;11.43;52.59
28428;BME280;15662;49.128;8.520;2022-12-07T00:06:50;100633.28;;;11.43;52.65
28428;BME280;15662;49.128;8.520;2022-12-07T00:09:19;100634.22;;;11.42;52.56
28428;BME280;15662;49.128;8.520;2022-12-07T00:11:50;100631.56;;;11.42;52.74
28428;BME280;15662;49.128;8.520;2022-12-07T00:14:19;100633.38;;;11.40;52.59
28428;BME280;15662;49.128;8.520;2022-12-07T00:16:50;100634.25;;;11.40;52.63
28428;BME280;15662;49.128;8.520;2022-12-07T00:19:19;100633.44;;;11.38;52.91
28428;BME280;15662;49.128;8.520;2022-12-07T00:21:47;100628.13;;;11.38;52.74
28428;BME280;15662;49.128;8.520;2022-12-07T00:24:16;100614.09;;;11.33;52.58
28428;BME280;15662;49.128;8.520;2022-12-07T00:26:45;100630.78;;;11.36;52.77
28428;BME280;15662;49.128;8.520;2022-12-07T00:29:20;100631.66;;;11.39;52.65
28428;BME280;15662;49.128;8.520;2022-12-07T00:31:52;100633.44;;;11.36;52.92
28428;BME280;15662;49.128;8.520;2022-12-07T00:34:21;100618.44;;;11.35;52.84
28428;BME280;15662;49.128;8.520;2022-12-07T00:36:50;100622.88;;;11.35;52.84
28428;BME280;15662;49.128;8.520;2022-12-07T00:39:18;100622.94;;;11.33;52.58
28428;BME280;15662;49.128;8.520;2022-12-07T00:41:47;100617.53;;;11.36;52.87
28428;BME280;15662;49.128;8.520;2022-12-07T00:44:14;100615.84;;;11.32;52.76
28428;BME280;15662;49.128;8.520;2022-12-07T00:46:42;100620.19;;;11.36;52.62
28428;BME280;15662;49.128;8.520;2022-12-07T00:49:10;100606.97;;;11.35;52.67
28428;BME280;15662;49.128;8.520;2022-12-07T00:51:39;100616.66;;;11.36;52.67
28428;BME280;15662;49.128;8.520;2022-12-07T00:54:07;100615.78;;;11.35;52.52
28428;BME280;15662;49.128;8.520;2022-12-07T00:56:35;100620.38;;;11.29;52.55
28428;BME280;15662;49.128;8.520;2022-12-07T00:59:03;100606.28;;;11.27;52.97
28428;BME280;15662;49.128;8.520;2022-12-07T01:01:35;100615.78;;;11.35;52.52
28428;BME280;15662;49.128;8.520;2022-12-07T01:04:05;100614.09;;;11.33;52.76
28428;BME280;15662;49.128;8.520;2022-12-07T01:06:33;100623.88;;;11.31;52.53
28428;BME280;15662;49.128;8.520;2022-12-07T01:09:03;100622.06;;;11.31;52.50
28428;BME280;15662;49.128;8.520;2022-12-07T01:11:33;100617.84;;;11.24;52.49
28428;BME280;15662;49.128;8.520;2022-12-07T01:14:01;100620.50;;;11.24;52.44
28428;BME280;15662;49.128;8.520;2022-12-07T01:16:32;100609.13;;;11.19;52.55
28428;BME280;15662;49.128;8.520;2022-12-07T01:19:01;100613.47;;;11.22;52.43
28428;BME280;15662;49.128;8.520;2022-12-07T01:21:34;100600.25;;;11.20;52.48
28428;BME280;15662;49.128;8.520;2022-12-07T01:24:09;100615.22;;;11.23;52.66
28428;BME280;15662;49.128;8.520;2022-12-07T01:26:37;100605.63;;;11.17;52.90
28428;BME280;15662;49.128;8.520;2022-12-07T01:29:05;100603.06;;;11.13;52.75
28428;BME280;15662;49.128;8.520;2022-12-07T01:31:34;100601.44;;;11.08;52.55
28428;BME280;15662;49.128;8.520;2022-12-07T01:34:02;100613.03;;;11.04;52.84
28428;BME280;15662;49.128;8.520;2022-12-07T01:36:34;100627.97;;;11.07;52.73
28428;BME280;15662;49.128;8.520;2022-12-07T01:39:07;100628.94;;;11.03;52.60
28428;BME280;15662;49.128;8.520;2022-12-07T01:41:38;100621.84;;;11.05;52.59
28428;BME280;15662;49.128;8.520;2022-12-07T01:52:33;100624.50;;;11.05;52.95
28428;BME280;15662;49.128;8.520;2022-12-07T01:55:12;100629.88;;;11.02;52.78
28428;BME280;15662;49.128;8.520;2022-12-07T01:57:49;100635.22;;;11.00;53.12
28428;BME280;15662;49.128;8.520;2022-12-07T02:00:19;100636.16;;;10.98;52.93
28428;BME280;15662;49.128;8.520;2022-12-07T02:03:00;100638.69;;;11.02;53.03
28428;BME280;15662;49.128;8.520;2022-12-07T02:05:32;100624.66;;;10.97;52.91
28428;BME280;15662;49.128;8.520;2022-12-07T02:08:01;100622.06;;;10.96;53.07
28428;BME280;15662;49.128;8.520;2022-12-07T02:10:32;100611.50;;;10.93;53.15
28428;BME280;15662;49.128;8.520;2022-12-07T02:13:13;100615.88;;;10.95;53.12
28428;BME280;15662;49.128;8.520;2022-12-07T02:28:25;100597.38;;;10.92;53.28
28428;BME280;15662;49.128;8.520;2022-12-07T02:30:58;100598.25;;;10.94;53.41
28428;BME280;15662;49.128;8.520;2022-12-07T02:33:54;100586.72;;;10.95;53.20
28428;BME280;15662;49.128;8.520;2022-12-07T02:36:31;100593.75;;;10.96;53.18
28428;BME280;15662;49.128;8.520;2022-12-07T02:39:17;100614.81;;;11.02;53.22
28428;BME280;15662;49.128;8.520;2022-12-07T02:41:52;100610.44;;;11.01;53.07
28428;BME280;15662;49.128;8.520;2022-12-07T02:44:25;100600.84;;;10.96;53.18
28428;BME280;15662;49.128;8.520;2022-12-07T02:47:05;100608.59;;;11.05;53.27
28428;BME280;15662;49.128;8.520;2022-12-07T02:49:38;100583.09;;;10.98;53.41
28428;BME280;15662;49.128;8.520;2022-12-07T02:52:09;100570.00;;;10.92;53.32
28428;BME280;15662;49.128;8.520;2022-12-07T02:54:38;100576.09;;;10.95;53.32
28428;BME280;15662;49.128;8.520;2022-12-07T03:00:11;100563.94;;;10.87;53.15
28428;BME280;15662;49.128;8.520;2022-12-07T03:02:53;100577.44;;;10.76;53.53
28428;BME280;15662;49.128;8.520;2022-12-07T03:11:38;100574.63;;;10.82;53.21
28428;BME280;15662;49.128;8.520;2022-12-07T03:14:25;100581.94;;;10.74;53.30
28428;BME280;15662;49.128;8.520;2022-12-07T03:19:34;100583.78;;;10.69;53.37
28428;BME280;15662;49.128;8.520;2022-12-07T03:22:07;100582.03;;;10.69;53.41
28428;BME280;15662;49.128;8.520;2022-12-07T03:24:50;100585.53;;;10.70;53.38
28428;BME280;15662;49.128;8.520;2022-12-07T03:27:24;100578.56;;;10.66;53.26
28428;BME280;15662;49.128;8.520;2022-12-07T03:30:04;100575.97;;;10.64;53.41
28428;BME280;15662;49.128;8.520;2022-12-07T03:37:56;100577.91;;;10.56;53.18
28428;BME280;15662;49.128;8.520;2022-12-07T03:40:39;100578.81;;;10.53;53.35
28428;BME280;15662;49.128;8.520;2022-12-07T03:43:08;100577.56;;;10.31;53.61
28428;BME280;15662;49.128;8.520;2022-12-07T03:48:41;100587.00;;;10.44;53.57
28428;BME280;15662;49.128;8.520;2022-12-07T03:51:31;100586.03;;;10.47;53.52
28428;BME280;15662;49.128;8.520;2022-12-07T03:56:41;100573.63;;;10.49;53.70
28428;BME280;15662;49.128;8.520;2022-12-07T03:59:14;100574.53;;;10.48;53.49
28428;BME280;15662;49.128;8.520;2022-12-07T04:01:47;100576.25;;;10.50;53.52
28428;BME280;15662;49.128;8.520;2022-12-07T04:04:18;100566.56;;;10.49;53.48
28428;BME280;15662;49.128;8.520;2022-12-07T04:06:47;100577.09;;;10.52;53.72
28428;BME280;15662;49.128;8.520;2022-12-07T04:09:15;100578.81;;;10.53;53.59
28428;BME280;15662;49.128;8.520;2022-12-07T04:11:44;100582.34;;;10.55;53.69
28428;BME280;15662;49.128;8.520;2022-12-07T04:14:13;100577.03;;;10.54;53.46
28428;BME280;15662;49.128;8.520;2022-12-07T04:16:58;100576.25;;;10.50;53.68
28428;BME280;15662;49.128;8.520;2022-12-07T04:19:32;100562.25;;;10.45;53.73
28428;BME280;15662;49.128;8.520;2022-12-07T04:22:04;100571.78;;;10.52;53.61
28428;BME280;15662;49.128;8.520;2022-12-07T04:24:33;100565.66;;;10.50;53.67
28428;BME280;15662;49.128;8.520;2022-12-07T04:27:03;100551.59;;;10.47;53.40
28428;BME280;15662;49.128;8.520;2022-12-07T04:29:31;100562.06;;;10.53;53.65
28428;BME280;15662;49.128;8.520;2022-12-07T04:31:59;100556.03;;;10.46;53.49
28428;BME280;15662;49.128;8.520;2022-12-07T04:34:27;100565.56;;;10.53;53.74
28428;BME280;15662;49.128;8.520;2022-12-07T04:37:16;100561.22;;;10.51;53.73
28428;BME280;15662;49.128;8.520;2022-12-07T04:39:44;100562.06;;;10.53;53.53
28428;BME280;15662;49.128;8.520;2022-12-07T04:42:15;100557.66;;;10.52;53.59
28428;BME280;15662;49.128;8.520;2022-12-07T04:44:43;100564.69;;;10.53;53.59
28428;BME280;15662;49.128;8.520;2022-12-07T04:47:12;100564.69;;;10.54;53.59
28428;BME280;15662;49.128;8.520;2022-12-07T04:49:42;100568.16;;;10.56;53.60
28428;BME280;15662;49.128;8.520;2022-12-07T04:52:10;100560.25;;;10.55;53.72
28428;BME280;15662;49.128;8.520;2022-12-07T04:54:37;100556.66;;;10.57;53.53
28428;BME280;15662;49.128;8.520;2022-12-07T04:57:08;100559.31;;;10.57;53.56
28428;BME280;15662;49.128;8.520;2022-12-07T04:59:36;100552.31;;;10.53;53.57
28428;BME280;15662;49.128;8.520;2022-12-07T05:02:12;100554.03;;;10.56;53.59
28428;BME280;15662;49.128;8.520;2022-12-07T05:04:40;100557.59;;;10.55;53.63
28428;BME280;15662;49.128;8.520;2022-12-07T05:07:10;100561.13;;;10.54;53.89
28428;BME280;15662;49.128;8.520;2022-12-07T05:09:38;100571.81;;;10.51;53.81
28428;BME280;15662;49.128;8.520;2022-12-07T05:12:06;100562.16;;;10.48;53.88
28428;BME280;15662;49.128;8.520;2022-12-07T05:14:34;100564.81;;;10.48;54.13
28428;BME280;15662;49.128;8.520;2022-12-07T05:17:02;100555.19;;;10.44;54.00
28428;BME280;15662;49.128;8.520;2022-12-07T05:19:31;100559.50;;;10.48;54.04
28428;BME280;15662;49.128;8.520;2022-12-07T05:22:00;100549.00;;;10.44;54.08
28428;BME280;15662;49.128;8.520;2022-12-07T05:24:31;100554.19;;;10.48;53.90
28428;BME280;15662;49.128;8.520;2022-12-07T05:26:59;100571.16;;;10.41;54.13
28428;BME280;15662;49.128;8.520;2022-12-07T05:29:27;100562.25;;;10.45;54.04
28428;BME280;15662;49.128;8.520;2022-12-07T05:31:57;100557.91;;;10.41;53.97
28428;BME280;15662;49.128;8.520;2022-12-07T05:34:26;100559.50;;;10.48;54.09
28428;BME280;15662;49.128;8.520;2022-12-07T05:36:54;100555.13;;;10.47;53.88
28428;BME280;15662;49.128;8.520;2022-12-07T05:39:22;100549.84;;;10.46;53.80
28428;BME280;15662;49.128;8.520;2022-12-07T05:41:50;100552.50;;;10.46;53.83
28428;BME280;15662;49.128;8.520;2022-12-07T05:44:44;100542.00;;;10.41;53.82
28428;BME280;15662;49.128;8.520;2022-12-07T05:47:15;100544.66;;;10.41;53.88
28428;BME280;15662;49.128;8.520;2022-12-07T05:49:45;100551.75;;;10.41;53.92
28428;BME280;15662;49.128;8.520;2022-12-07T05:52:13;100544.81;;;10.35;53.96
28428;BME280;15662;49.128;8.520;2022-12-07T05:54:42;100559.75;;;10.38;53.92
28428;BME280;15662;49.128;8.520;2022-12-07T05:57:11;100560.63;;;10.38;54.01
28428;BME280;15662;49.128;8.520;2022-12-07T05:59:41;100538.63;;;10.35;53.96
28428;BME280;15662;49.128;8.520;2022-12-07T06:02:13;100551.75;;;10.41;53.81
28428;BME280;15662;49.128;8.520;2022-12-07T06:04:44;100563.25;;;10.38;54.17
28428;BME280;15662;49.128;8.520;2022-12-07T06:07:15;100552.75;;;10.35;53.91
28428;BME280;15662;49.128;8.520;2022-12-07T06:09:43;100546.69;;;10.30;53.93
28428;BME280;15662;49.128;8.520;2022-12-07T06:12:13;100535.28;;;10.23;53.87
28428;BME280;15662;49.128;8.520;2022-12-07T06:15:00;100539.81;;;10.20;54.03
28428;BME280;15662;49.128;8.520;2022-12-07T06:17:29;100543.31;;;10.20;53.99
28428;BME280;15662;49.128;8.520;2022-12-07T06:19:58;100549.38;;;10.27;53.90
28428;BME280;15662;49.128;8.520;2022-12-07T06:22:27;100554.72;;;10.25;53.98
28428;BME280;15662;49.128;8.520;2022-12-07T06:24:55;100544.25;;;10.18;53.77
28428;BME280;15662;49.128;8.520;2022-12-07T06:27:24;100545.00;;;10.24;54.12
28428;BME280;15662;49.128;8.520;2022-12-07T06:29:52;100552.09;;;10.24;53.99
28428;BME280;15662;49.128;8.520;2022-12-07T06:32:20;100552.09;;;10.24;54.04
28428;BME280;15662;49.128;8.520;2022-12-07T06:34:48;100552.13;;;10.21;53.86
28428;BME280;15662;49.128;8.520;2022-12-07T06:37:17;100560.97;;;10.21;53.96
28428;BME280;15662;49.128;8.520;2022-12-07T06:39:46;100561.91;;;10.17;54.08
28428;BME280;15662;49.128;8.520;2022-12-07T06:42:15;100553.06;;;10.18;54.09
28428;BME280;15662;49.128;8.520;2022-12-07T06:44:43;100547.84;;;10.14;53.88
28428;BME280;15662;49.128;8.520;2022-12-07T06:47:11;100547.03;;;10.12;53.97
28428;BME280;15662;49.128;8.520;2022-12-07T06:50:00;100562.00;;;10.13;53.94
28428;BME280;15662;49.128;8.520;2022-12-07T06:52:30;100549.81;;;10.04;53.81
28428;BME280;15662;49.128;8.520;2022-12-07T06:54:59;100562.84;;;10.15;53.93
28428;BME280;15662;49.128;8.520;2022-12-07T06:57:27;100560.22;;;10.13;53.94
28428;BME280;15662;49.128;8.520;2022-12-07T06:59:55;100547.94;;;10.11;53.86
28428;BME280;15662;49.128;8.520;2022-12-07T07:02:24;100553.97;;;10.17;53.99
28428;BME280;15662;49.128;8.520;2022-12-07T07:04:53;100546.16;;;10.11;53.94
28428;BME280;15662;49.128;8.520;2022-12-07T07:07:22;100557.44;;;10.21;53.72
28428;BME280;15662;49.128;8.520;2022-12-07T07:09:50;100552.13;;;10.21;53.79
28428;BME280;15662;49.128;8.520;2022-12-07T07:12:19;100554.75;;;10.22;53.81
28428;BME280;15662;49.128;8.520;2022-12-07T07:14:46;100554.72;;;10.25;53.88
28428;BME280;15662;49.128;8.520;2022-12-07T07:17:16;100548.50;;;10.26;53.67
28428;BME280;15662;49.128;8.520;2022-12-07T07:19:44;100562.50;;;10.33;53.71
28428;BME280;15662;49.128;8.520;2022-12-07T07:22:13;100555.44;;;10.32;53.74
28428;BME280;15662;49.128;8.520;2022-12-07T07:24:41;100562.34;;;10.39;53.70
28428;BME280;15662;49.128;8.520;2022-12-07T07:27:09;100561.38;;;10.43;53.64
28428;BME280;15662;49.128;8.520;2022-12-07T07:29:38;100555.31;;;10.38;53.66
28428;BME280;15662;49.128;8.520;2022-12-07T07:32:06;100566.63;;;10.46;53.43
28428;BME280;15662;49.128;8.520;2022-12-07T07:34:35;100570.09;;;10.48;53.60
28428;BME280;15662;49.128;8.520;2022-12-07T07:37:03;100570.19;;;10.45;53.28
28428;BME280;15662;49.128;8.520;2022-12-07T07:39:31;100567.50;;;10.47;53.48
28428;BME280;15662;49.128;8.520;2022-12-07T07:42:01;100557.84;;;10.44;53.42
28428;BME280;15662;49.128;8.520;2022-12-07T07:44:33;100577.03;;;10.54;53.50
28428;BME280;15662;49.128;8.520;2022-12-07T07:47:02;100570.84;;;10.55;53.32
28428;BME280;15662;49.128;8.520;2022-12-07T07:49:30;100579.69;;;10.55;53.37
28428;BME280;15662;49.128;8.520;2022-12-07T07:51:58;100584.94;;;10.57;53.36
28428;BME280;15662;49.128;8.520;2022-12-07T07:54:27;100588.47;;;10.57;53.37
28428;BME280;15662;49.128;8.520;2022-12-07T07:56:55;100584.97;;;10.55;53.32
28428;BME280;15662;49.128;8.520;2022-12-07T07:59:24;100581.47;;;10.55;53.03
28428;BME280;15662;49.128;8.520;2022-12-07T08:01:54;100582.25;;;10.58;53.07
28428;BME280;15662;49.128;8.520;2022-12-07T08:04:23;100583.09;;;10.61;53.22
28428;BME280;15662;49.128;8.520;2022-12-07T08:06:52;100602.47;;;10.64;53.40
28428;BME280;15662;49.128;8.520;2022-12-07T08:09:20;100595.28;;;10.68;53.25
28428;BME280;15662;49.128;8.520;2022-12-07T08:11:48;100597.16;;;10.64;53.00
28428;BME280;15662;49.128;8.520;2022-12-07T08:14:17;100596.25;;;10.65;53.01
28428;BME280;15662;49.128;8.520;2022-12-07T08:16:45;100601.56;;;10.65;53.06
28428;BME280;15662;49.128;8.520;2022-12-07T08:19:13;100587.53;;;10.60;53.12
28428;BME280;15662;49.128;8.520;2022-12-07T08:21:42;100608.59;;;10.66;53.07
28428;BME280;15662;49.128;8.520;2022-12-07T08:24:10;100609.41;;;10.70;53.07
28428;BME280;15662;49.128;8.520;2022-12-07T08:26:38;100613.84;;;10.68;53.04
28428;BME280;15662;49.128;8.520;2022-12-07T08:29:07;100608.63;;;10.65;53.17
28428;BME280;15662;49.128;8.520;2022-12-07T08:31:35;100614.81;;;10.64;52.94
28428;BME280;15662;49.128;8.520;2022-12-07T08:34:05;100609.50;;;10.64;52.78
28428;BME280;15662;49.128;8.520;2022-12-07T08:36:36;100611.28;;;10.65;52.78
28428;BME280;15662;49.128;8.520;2022-12-07T08:39:04;100601.66;;;10.61;52.74
28428;BME280;15662;49.128;8.520;2022-12-07T08:41:54;100613.94;;;10.63;52.98
28428;BME280;15662;49.128;8.520;2022-12-07T08:44:23;100614.75;;;10.67;52.84
28428;BME280;15662;49.128;8.520;2022-12-07T08:46:57;100612.06;;;10.70;52.81
28428;BME280;15662;49.128;8.520;2022-12-07T08:49:31;100610.19;;;10.73;52.89
28428;BME280;15662;49.128;8.520;2022-12-07T08:52:02;100593.59;;;10.64;52.65
28428;BME280;15662;49.128;8.520;2022-12-07T08:54:35;100603.28;;;10.66;52.92
28428;BME280;15662;49.128;8.520;2022-12-07T08:57:04;100615.44;;;10.76;53.00
28428;BME280;15662;49.128;8.520;2022-12-07T08:59:35;100614.53;;;10.77;52.84
28428;BME280;15662;49.128;8.520;2022-12-07T09:02:05;100612.63;;;10.84;52.66
28428;BME280;15662;49.128;8.520;2022-12-07T09:04:34;100614.38;;;10.83;52.78
28428;BME280;15662;49.128;8.520;2022-12-07T09:07:03;100616.97;;;10.87;52.65
28428;BME280;15662;49.128;8.520;2022-12-07T09:09:32;100608.09;;;10.88;52.77
28428;BME280;15662;49.128;8.520;2022-12-07T09:12:00;100613.53;;;10.81;52.43
28428;BME280;15662;49.128;8.520;2022-12-07T09:14:30;100610.06;;;10.79;52.61
28428;BME280;15662;49.128;8.520;2022-12-07T09:17:11;100610.94;;;10.80;52.06
28428;BME280;15662;49.128;8.520;2022-12-07T09:19:39;100609.25;;;10.76;52.41
28428;BME280;15662;49.128;8.520;2022-12-07T09:22:09;100618.84;;;10.81;52.50
28428;BME280;15662;49.128;8.520;2022-12-07T09:24:37;100620.56;;;10.84;52.44
28428;BME280;15662;49.128;8.520;2022-12-07T09:27:05;100624.97;;;10.85;52.34
28428;BME280;15662;49.128;8.520;2022-12-07T09:29:33;100616.97;;;10.87;52.47
28428;BME280;15662;49.128;8.520;2022-12-07T09:32:03;100620.44;;;10.90;52.59
28428;BME280;15662;49.128;8.520;2022-12-07T09:34:38;100618.59;;;10.92;52.46
28428;BME280;15662;49.128;8.520;2022-12-07T09:37:07;100623.84;;;10.95;52.56
28428;BME280;15662;49.128;8.520;2022-12-07T09:39:39;100618.63;;;10.91;52.29
28428;BME280;15662;49.128;8.520;2022-12-07T09:42:38;100608.31;;;10.78;52.38
28428;BME280;15662;49.128;8.520;2022-12-07T09:50:51;100609.06;;;10.85;52.93
28428;BME280;15662;49.128;8.520;2022-12-07T09:53:31;100607.28;;;10.85;52.84
28428;BME280;15662;49.128;8.520;2022-12-07T09:56:01;100608.13;;;10.86;52.77
28428;BME280;15662;49.128;8.520;2022-12-07T09:58:32;100609.88;;;10.89;53.07
28428;BME280;15662;49.128;8.520;2022-12-07T10:01:17;100604.47;;;10.92;52.60
28428;BME280;15662;49.128;8.520;2022-12-07T10:04:16;100608.91;;;10.91;52.82
28428;BME280;15662;49.128;8.520;2022-12-07T10:06:42;100600.13;;;10.89;53.18
28428;BME280;15662;49.128;8.520;2022-12-07T10:09:15;100606.19;;;10.94;52.91
28428;BME280;15662;49.128;8.520;2022-12-07T10:12:08;100599.88;;;10.98;52.67
28428;BME280;15662;49.128;8.520;2022-12-07T10:14:56;100600.78;;;10.99;52.88
28428;BME280;15662;49.128;8.520;2022-12-07T10:17:52;100583.97;;;10.98;52.94
28428;BME280;15662;49.128;8.520;2022-12-07T10:20:26;100596.34;;;10.98;52.83
28428;BME280;15662;49.128;8.520;2022-12-07T10:23:04;100577.03;;;10.94;52.81
28428;BME280;15662;49.128;8.520;2022-12-07T10:25:37;100592.88;;;10.96;52.81
28428;BME280;15662;49.128;8.520;2022-12-07T10:28:18;100574.59;;;10.85;52.52
28428;BME280;15662;49.128;8.520;2022-12-07T10:36:39;100580.50;;;10.96;52.67
28428;BME280;15662;49.128;8.520;2022-12-07T10:39:20;100591.75;;;11.06;52.95
28428;BME280;15662;49.128;8.520;2022-12-07T10:42:01;100589.91;;;11.09;52.63
28428;BME280;15662;49.128;8.520;2022-12-07T10:44:40;100579.31;;;11.08;52.64
28428;BME280;15662;49.128;8.520;2022-12-07T10:50:41;100579.31;;;11.08;52.84
28428;BME280;15662;49.128;8.520;2022-12-07T10:57:04;100562.53;;;11.07;52.37
28428;BME280;15662;49.128;8.520;2022-12-07T11:06:05;100557.97;;;11.13;52.39
28428;BME280;15662;49.128;8.520;2022-12-07T11:08:57;100546.13;;;10.92;53.09
28428;BME280;15662;49.128;8.520;2022-12-07T11:31:01;100531.22;;;11.22;52.17
28428;BME280;15662;49.128;8.520;2022-12-07T11:36:40;100536.47;;;11.25;52.19
28428;BME280;15662;49.128;8.520;2022-12-07T11:42:20;100531.97;;;11.27;51.96
28428;BME280;15662;49.128;8.520;2022-12-07T11:44:59;100517.78;;;11.28;52.05
28428;BME280;15662;49.128;8.520;2022-12-07T11:48:01;100522.97;;;11.32;52.19
28428;BME280;15662;49.128;8.520;2022-12-07T11:50:47;100521.16;;;11.34;52.24
28428;BME280;15662;49.128;8.520;2022-12-07T11:53:49;100517.47;;;11.40;52.06
28428;BME280;15662;49.128;8.520;2022-12-07T11:56:24;100493.66;;;11.37;52.31
28428;BME280;15662;49.128;8.520;2022-12-07T11:59:24;100481.06;;;11.45;52.02
28428;BME280;15662;49.128;8.520;2022-12-07T12:05:18;100500.94;;;11.63;52.09
28428;BME280;15662;49.128;8.520;2022-12-07T12:20:42;100479.72;;;11.61;51.49
28428;BME280;15662;49.128;8.520;2022-12-07T12:23:35;100488.53;;;11.63;51.59
28428;BME280;15662;49.128;8.520;2022-12-07T12:26:07;100478.09;;;11.56;51.64
28428;BME280;15662;49.128;8.520;2022-12-07T12:31:41;100478.66;;;11.67;51.58
28428;BME280;15662;49.128;8.520;2022-12-07T12:37:40;100468.94;;;11.68;52.03
28428;BME280;15662;49.128;8.520;2022-12-07T12:42:52;100474.59;;;11.86;51.67
28428;BME280;15662;49.128;8.520;2022-12-07T12:45:29;100468.41;;;11.87;51.30
28428;BME280;15662;49.128;8.520;2022-12-07T12:50:37;100475.03;;;12.02;51.37
28428;BME280;15662;49.128;8.520;2022-12-07T12:53:24;100468.81;;;12.03;51.30
28428;BME280;15662;49.128;8.520;2022-12-07T12:56:38;100468.81;;;12.03;51.14
28428;BME280;15662;49.128;8.520;2022-12-07T13:34:35;100424.16;;;12.14;50.97
28428;BME280;15662;49.128;8.520;2022-12-07T13:37:32;100432.09;;;12.16;51.06
28428;BME280;15662;49.128;8.520;2022-12-07T13:40:18;100436.13;;;12.00;51.56
28428;BME280;15662;49.128;8.520;2022-12-07T13:42:47;100435.00;;;12.08;51.24
28428;BME280;15662;49.128;8.520;2022-12-07T13:45:29;100426.88;;;12.13;50.79
28428;BME280;15662;49.128;8.520;2022-12-07T13:48:44;100424.22;;;12.13;50.92
28428;BME280;15662;49.128;8.520;2022-12-07T13:51:34;100434.00;;;12.12;51.00
28428;BME280;15662;49.128;8.520;2022-12-07T13:54:11;100427.81;;;12.12;50.78
28428;BME280;15662;49.128;8.520;2022-12-07T13:56:41;100423.59;;;12.05;50.94
28428;BME280;15662;49.128;8.520;2022-12-07T13:59:35;100430.50;;;12.10;50.60
28428;BME280;15662;49.128;8.520;2022-12-07T14:02:22;100417.34;;;12.06;50.65
28428;BME280;15662;49.128;8.520;2022-12-07T14:05:33;100429.81;;;12.04;50.70
28428;BME280;15662;49.128;8.520;2022-12-07T14:10:55;100423.63;;;12.03;50.61
28428;BME280;15662;49.128;8.520;2022-12-07T14:13:38;100415.81;;;11.99;50.49
28428;BME280;15662;49.128;8.520;2022-12-07T14:16:35;100437.88;;;12.01;50.32
28428;BME280;15662;49.128;8.520;2022-12-07T14:22:26;100437.19;;;11.94;50.73
28428;BME280;15662;49.128;8.520;2022-12-07T14:25:14;100440.78;;;11.93;50.79
28428;BME280;15662;49.128;8.520;2022-12-07T14:27:55;100436.41;;;11.91;50.54
28428;BME280;15662;49.128;8.520;2022-12-07T14:30:32;100436.22;;;11.97;50.78
28428;BME280;15662;49.128;8.520;2022-12-07T14:33:04;100430.03;;;11.96;50.56
28428;BME280;15662;49.128;8.520;2022-12-07T14:35:34;100417.81;;;11.91;50.64
28428;BME280;15662;49.128;8.520;2022-12-07T14:38:05;100425.66;;;11.95;50.35
28428;BME280;15662;49.128;8.520;2022-12-07T14:40:33;100435.28;;;11.99;50.59
28428;BME280;15662;49.128;8.520;2022-12-07T14:43:04;100428.22;;;11.98;50.11
28428;BME280;15662;49.128;8.520;2022-12-07T14:45:33;100430.78;;;12.01;50.34
28428;BME280;15662;49.128;8.520;2022-12-07T14:48:02;100428.09;;;12.03;50.38
28428;BME280;15662;49.128;8.520;2022-12-07T14:50:52;100433.47;;;12.00;50.20
28428;BME280;15662;49.128;8.520;2022-12-07T14:53:48;100423.88;;;11.96;50.25
28428;BME280;15662;49.128;8.520;2022-12-07T14:56:25;100430.16;;;11.93;50.23
28428;BME280;15662;49.128;8.520;2022-12-07T14:58:53;100425.75;;;11.92;50.29
28428;BME280;15662;49.128;8.520;2022-12-07T15:01:23;100425.78;;;11.91;50.10
28428;BME280;15662;49.128;8.520;2022-12-07T15:03:51;100423.19;;;11.89;50.26
28428;BME280;15662;49.128;8.520;2022-12-07T15:06:20;100401.22;;;11.84;50.32
28428;BME280;15662;49.128;8.520;2022-12-07T15:08:48;100405.66;;;11.83;50.19
28428;BME280;15662;49.128;8.520;2022-12-07T15:11:17;100400.38;;;11.82;50.08
28428;BME280;15662;49.128;8.520;2022-12-07T15:13:45;100387.31;;;11.74;50.26
28428;BME280;15662;49.128;8.520;2022-12-07T15:16:32;100401.44;;;11.75;49.97
28428;BME280;15662;49.128;8.520;2022-12-07T15:19:23;100399.84;;;11.69;50.19
28428;BME280;15662;49.128;8.520;2022-12-07T15:21:57;100400.00;;;11.65;49.87
28428;BME280;15662;49.128;8.520;2022-12-07T15:24:27;100388.91;;;11.50;50.00
28428;BME280;15662;49.128;8.520;2022-12-07T15:26:56;100402.91;;;11.55;50.13
28428;BME280;15662;49.128;8.520;2022-12-07T15:29:24;100402.13;;;11.52;50.31
28428;BME280;15662;49.128;8.520;2022-12-07T15:31:52;100393.53;;;11.44;50.10
28428;BME280;15662;49.128;8.520;2022-12-07T15:34:27;100396.31;;;11.39;49.98
28428;BME280;15662;49.128;8.520;2022-12-07T15:37:07;100398.34;;;11.29;50.05
28428;BME280;15662;49.128;8.520;2022-12-07T15:39:36;100397.50;;;11.29;50.37
28428;BME280;15662;49.128;8.520;2022-12-07T15:42:04;100401.94;;;11.28;50.39
28428;BME280;15662;49.128;8.520;2022-12-07T15:44:32;100397.56;;;11.26;50.50
28428;BME280;15662;49.128;8.520;2022-12-07T15:47:19;100404.72;;;11.22;50.24
28428;BME280;15662;49.128;8.520;2022-12-07T15:49:48;100399.41;;;11.24;50.29
28428;BME280;15662;49.128;8.520;2022-12-07T15:52:16;100398.56;;;11.22;50.49
28428;BME280;15662;49.128;8.520;2022-12-07T15:54:45;100404.72;;;11.22;50.29
28428;BME280;15662;49.128;8.520;2022-12-07T15:57:14;100407.38;;;11.22;50.42
28428;BME280;15662;49.128;8.520;2022-12-07T15:59:49;100397.81;;;11.17;50.67
28428;BME280;15662;49.128;8.520;2022-12-07T16:02:17;100400.47;;;11.17;50.28
28428;BME280;15662;49.128;8.520;2022-12-07T16:04:45;100398.75;;;11.16;50.36
28428;BME280;15662;49.128;8.520;2022-12-07T16:07:14;100379.38;;;11.12;50.51